createdAt,value
2023-05-15T00:02:02.264Z,21.17
2023-05-15T00:05:06.944Z,16.40
2023-05-15T00:08:10.887Z,15.97
2023-05-15T00:11:14.850Z,16.53
2023-05-15T00:14:20.330Z,19.70
2023-05-15T00:17:24.063Z,18.80
2023-05-15T00:20:27.846Z,16.07
2023-05-15T00:23:31.677Z,17.97
2023-05-15T00:26:36.048Z,16.93
2023-05-15T00:29:42.177Z,16.77
2023-05-15T00:32:46.045Z,20.30
2023-05-15T00:35:49.910Z,20.80
2023-05-15T00:38:54.083Z,22.53
2023-05-15T00:42:00.633Z,21.97
2023-05-15T00:45:10.921Z,20.57
2023-05-15T00:48:15.470Z,22.80
2023-05-15T00:51:19.462Z,22.97
2023-05-15T00:54:23.295Z,18.83
2023-05-15T00:57:28.711Z,20.70
2023-05-15T01:00:35.442Z,21.60
2023-05-15T01:03:40.779Z,19.23
2023-05-15T01:06:45.248Z,18.87
2023-05-15T01:09:50.889Z,16.73
2023-05-15T01:12:56.644Z,18.60
2023-05-15T01:16:01.886Z,20.43
2023-05-15T01:19:07.304Z,18.90
2023-05-15T01:22:46.245Z,18.23
2023-05-15T01:26:34.965Z,21.20
2023-05-15T01:29:46.025Z,18.30
2023-05-15T01:32:55.893Z,18.40
2023-05-15T01:36:06.672Z,19.47
2023-05-15T01:39:14.142Z,20.17
2023-05-15T01:42:21.003Z,19.03
2023-05-15T01:45:30.490Z,17.50
2023-05-15T01:48:36.696Z,20.07
2023-05-15T01:51:42.300Z,20.87
2023-05-15T01:54:47.567Z,20.23
2023-05-15T01:57:52.705Z,20.50
2023-05-15T02:00:58.973Z,20.33
2023-05-15T02:04:05.576Z,19.47
2023-05-15T02:07:09.711Z,18.00
2023-05-15T02:10:14.571Z,19.53
2023-05-15T02:13:26.251Z,18.40
2023-05-15T02:16:31.589Z,21.47
2023-05-15T02:19:35.424Z,20.57
2023-05-15T02:22:39.993Z,21.30
2023-05-15T02:25:51.642Z,18.63
2023-05-15T02:29:07.112Z,17.37
2023-05-15T02:32:22.555Z,21.57
2023-05-15T02:35:36.714Z,18.70
2023-05-15T02:38:46.360Z,19.53
2023-05-15T02:41:52.615Z,19.07
2023-05-15T02:44:57.231Z,16.43
2023-05-15T02:48:04.013Z,19.43
2023-05-15T02:51:09.287Z,16.33
2023-05-15T02:54:13.465Z,19.00
2023-05-15T02:57:17.398Z,19.63
2023-05-15T03:00:22.007Z,18.47
2023-05-15T03:03:27.335Z,21.07
2023-05-15T03:06:31.958Z,20.87
2023-05-15T03:09:35.969Z,20.50
2023-05-15T03:12:40.717Z,20.47
2023-05-15T03:15:46.108Z,25.70
2023-05-15T03:18:51.564Z,23.63
2023-05-15T03:21:55.524Z,24.00
2023-05-15T03:24:59.500Z,24.97
2023-05-15T03:28:03.546Z,23.23
2023-05-15T03:31:08.633Z,22.83
2023-05-15T03:34:13.987Z,23.17
2023-05-15T03:37:17.839Z,20.30
2023-05-15T03:40:21.607Z,22.10
2023-05-15T03:43:25.871Z,26.27
2023-05-15T03:46:29.657Z,21.67
2023-05-15T03:49:35.304Z,22.30
2023-05-15T03:52:42.378Z,22.67
2023-05-15T03:55:46.329Z,20.70
2023-05-15T03:58:50.085Z,20.40
2023-05-15T04:02:04.381Z,19.90
2023-05-15T04:05:11.652Z,24.53
2023-05-15T04:08:15.441Z,21.53
2023-05-15T04:11:19.120Z,24.97
2023-05-15T04:14:22.931Z,26.20
2023-05-15T04:17:26.932Z,24.90
2023-05-15T04:20:32.469Z,26.03
2023-05-15T04:23:36.200Z,25.13
2023-05-15T04:26:40.112Z,26.77
2023-05-15T04:29:43.829Z,24.07
2023-05-15T04:32:47.609Z,25.47
2023-05-15T04:35:53.470Z,21.40
2023-05-15T04:38:57.103Z,24.73
2023-05-15T04:42:00.936Z,25.33
2023-05-15T04:45:05.414Z,22.03
2023-05-15T04:48:09.208Z,24.33
2023-05-15T04:51:14.567Z,23.13
2023-05-15T04:54:18.294Z,23.30
2023-05-15T04:57:22.102Z,27.00
2023-05-15T05:00:26.572Z,25.53
2023-05-15T05:03:30.694Z,22.47
2023-05-15T05:06:36.133Z,23.97
2023-05-15T05:09:40.860Z,23.20
2023-05-15T05:12:44.766Z,21.70
2023-05-15T05:15:48.841Z,25.00
2023-05-15T05:18:52.855Z,27.30
2023-05-15T05:22:01.716Z,25.77
2023-05-15T05:25:06.141Z,25.03
2023-05-15T05:28:09.955Z,26.57
2023-05-15T05:31:13.969Z,27.23
2023-05-15T05:34:17.882Z,26.70
2023-05-15T05:37:23.224Z,27.67
2023-05-15T05:40:27.177Z,33.53
2023-05-15T05:43:32.012Z,29.20
2023-05-15T05:46:35.942Z,34.63
2023-05-15T05:49:40.241Z,29.73
2023-05-15T05:52:45.582Z,31.30
2023-05-15T05:55:49.786Z,30.27
2023-05-15T05:58:53.927Z,28.83
2023-05-15T06:01:58.134Z,30.50
2023-05-15T06:05:02.081Z,33.87
2023-05-15T06:08:07.885Z,32.67
2023-05-15T06:11:11.802Z,30.67
2023-05-15T06:14:15.704Z,30.40
2023-05-15T06:17:19.594Z,33.40
2023-05-15T06:20:23.817Z,28.23
2023-05-15T06:23:29.340Z,33.00
2023-05-15T06:26:33.263Z,28.80
2023-05-15T06:29:37.290Z,33.17
2023-05-15T06:32:41.912Z,32.03
2023-05-15T06:35:45.975Z,27.50
2023-05-15T06:38:51.339Z,26.47
2023-05-15T06:41:59.442Z,26.60
2023-05-15T06:45:03.293Z,28.00
2023-05-15T06:48:07.643Z,21.90
2023-05-15T06:51:11.742Z,20.93
2023-05-15T06:54:17.164Z,22.53
2023-05-15T06:57:21.128Z,23.20
2023-05-15T07:00:25.085Z,25.17
2023-05-15T07:03:29.014Z,21.53
2023-05-15T07:06:33.174Z,19.20
2023-05-15T07:09:38.513Z,19.97
2023-05-15T07:12:42.498Z,21.17
2023-05-15T07:15:46.814Z,22.80
2023-05-15T07:18:50.823Z,18.50
2023-05-15T07:21:54.905Z,15.00
2023-05-15T07:25:00.349Z,19.77
2023-05-15T07:28:04.315Z,18.93
2023-05-15T07:31:08.959Z,16.50
2023-05-15T07:34:13.394Z,18.37
2023-05-15T07:37:17.449Z,18.20
2023-05-15T07:40:22.994Z,14.57
2023-05-15T07:43:27.030Z,17.30
2023-05-15T07:46:30.964Z,20.53
2023-05-15T07:49:34.846Z,21.67
2023-05-15T07:52:38.649Z,16.33
2023-05-15T07:55:45.028Z,16.93
2023-05-15T07:58:48.961Z,19.70
2023-05-15T08:01:52.949Z,16.40
2023-05-15T08:04:56.813Z,17.93
2023-05-15T08:08:02.673Z,19.10
2023-05-15T08:11:08.018Z,15.87
2023-05-15T08:14:13.809Z,20.30
2023-05-15T08:17:18.044Z,22.90
2023-05-15T08:20:22.108Z,20.10
2023-05-15T08:23:26.126Z,16.87
2023-05-15T08:26:31.428Z,17.47
2023-05-15T08:29:37.302Z,21.07
2023-05-15T08:32:43.664Z,18.10
2023-05-15T08:35:47.631Z,21.07
2023-05-15T08:38:51.626Z,19.20
2023-05-15T08:42:02.299Z,17.47
2023-05-15T08:45:08.457Z,18.27
2023-05-15T08:48:15.742Z,20.57
2023-05-15T08:51:20.070Z,16.00
2023-05-15T08:54:24.353Z,21.07
2023-05-15T08:57:30.054Z,23.93
2023-05-15T09:00:35.357Z,17.17
2023-05-15T09:03:39.600Z,18.43
2023-05-15T09:06:45.242Z,18.00
2023-05-15T09:09:49.696Z,15.50
2023-05-15T09:12:56.416Z,15.10
2023-05-15T09:16:00.254Z,14.97
2023-05-15T09:19:05.025Z,18.13
2023-05-15T09:22:23.463Z,17.23
2023-05-15T09:25:37.840Z,14.97
2023-05-15T09:28:43.341Z,18.33
2023-05-15T09:31:48.828Z,19.30
2023-05-15T09:34:52.803Z,16.13
2023-05-15T09:38:01.372Z,15.30
2023-05-15T09:41:06.479Z,20.13
2023-05-15T09:44:21.569Z,18.90
2023-05-15T09:47:26.764Z,18.23
2023-05-15T09:50:36.313Z,23.03
2023-05-15T09:53:40.363Z,17.27
2023-05-15T09:56:45.188Z,15.27
2023-05-15T09:59:51.145Z,14.83
2023-05-15T10:02:55.139Z,17.70
2023-05-15T10:06:03.845Z,17.70
2023-05-15T10:09:08.364Z,17.83
2023-05-15T10:12:12.436Z,16.13
2023-05-15T10:15:19.198Z,15.50
2023-05-15T10:18:26.529Z,16.03
2023-05-15T10:21:32.521Z,20.67
2023-05-15T10:24:37.233Z,20.20
2023-05-15T10:27:43.274Z,18.27
2023-05-15T10:30:49.896Z,17.53
2023-05-15T10:33:56.926Z,24.30
2023-05-15T10:37:02.025Z,25.73
2023-05-15T10:40:10.703Z,29.53
2023-05-15T10:43:16.560Z,25.07
2023-05-15T10:46:23.570Z,25.73
2023-05-15T10:49:27.521Z,28.25
2023-05-15T10:52:33.696Z,29.30
2023-05-15T10:55:38.411Z,28.70
2023-05-15T10:58:47.642Z,29.50
2023-05-15T11:01:53.506Z,26.20
2023-05-15T11:04:59.195Z,28.60
2023-05-15T11:08:28.120Z,27.70
2023-05-15T11:11:57.917Z,25.63
2023-05-15T11:15:21.629Z,29.03
2023-05-15T11:18:27.814Z,28.40
2023-05-15T11:21:33.808Z,24.77
2023-05-15T11:24:50.759Z,25.83
2023-05-15T11:27:57.478Z,24.83
2023-05-15T11:31:02.812Z,29.57
2023-05-15T11:34:09.497Z,26.67
2023-05-15T11:37:19.721Z,30.27
2023-05-15T11:40:26.247Z,29.77
2023-05-15T11:43:32.004Z,28.83
2023-05-15T11:46:37.050Z,25.57
2023-05-15T11:49:42.848Z,27.50
2023-05-15T11:52:47.048Z,28.90
2023-05-15T11:55:50.984Z,26.23
2023-05-15T11:58:57.252Z,24.93
2023-05-15T12:02:01.363Z,26.07
2023-05-15T12:05:09.084Z,28.83
2023-05-15T12:08:13.480Z,28.50
2023-05-15T12:11:17.354Z,27.47
2023-05-15T12:14:29.167Z,26.17
2023-05-15T12:17:33.752Z,29.63
2023-05-15T12:20:45.247Z,31.57
2023-05-15T12:24:06.226Z,26.70
2023-05-15T12:27:11.512Z,31.00
2023-05-15T12:30:16.543Z,32.13
2023-05-15T12:33:20.842Z,26.07
2023-05-15T12:36:29.957Z,30.42
2023-05-15T12:39:34.301Z,27.80
2023-05-15T12:42:43.001Z,31.83
2023-05-15T12:45:46.993Z,35.50
2023-05-15T12:48:51.485Z,30.00
2023-05-15T12:51:56.718Z,29.20
2023-05-15T12:55:02.418Z,26.83
2023-05-15T12:58:07.945Z,31.40
2023-05-15T13:01:11.985Z,28.53
2023-05-15T13:04:18.287Z,27.73
2023-05-15T13:07:23.671Z,29.57
2023-05-15T13:10:28.167Z,32.90
2023-05-15T13:13:45.975Z,28.13
2023-05-15T13:16:49.889Z,31.23
2023-05-15T13:19:53.907Z,31.50
2023-05-15T13:22:59.278Z,28.23
2023-05-15T13:26:03.222Z,27.97
2023-05-15T13:29:07.092Z,30.20
2023-05-15T13:32:10.957Z,26.33
2023-05-15T13:35:14.970Z,27.67
2023-05-15T13:38:20.404Z,27.77
2023-05-15T13:41:24.199Z,27.43
2023-05-15T13:44:28.199Z,30.50
2023-05-15T13:47:32.205Z,28.20
2023-05-15T13:50:36.274Z,28.43
2023-05-15T13:53:41.662Z,27.40
2023-05-15T13:56:45.474Z,27.00
2023-05-15T13:59:49.349Z,30.60
2023-05-15T14:02:53.212Z,27.53
2023-05-15T14:05:57.084Z,33.90
2023-05-15T14:09:02.460Z,29.23
2023-05-15T14:12:06.654Z,28.53
2023-05-15T14:15:12.365Z,31.27
2023-05-15T14:18:16.397Z,33.37
2023-05-15T14:21:20.344Z,28.77
2023-05-15T14:24:25.725Z,32.23
2023-05-15T14:27:29.726Z,30.17
2023-05-15T14:30:36.637Z,31.40
2023-05-15T14:33:41.674Z,35.90
2023-05-15T14:36:46.633Z,34.77
2023-05-15T14:39:51.969Z,36.10
2023-05-15T14:42:55.853Z,41.90
2023-05-15T14:45:59.850Z,34.13
2023-05-15T14:49:03.884Z,35.57
2023-05-15T14:52:09.798Z,34.53
2023-05-15T14:55:15.312Z,30.90
2023-05-15T14:58:19.269Z,32.67
2023-05-15T15:01:23.283Z,31.07
2023-05-15T15:04:29.352Z,37.77
2023-05-15T15:07:33.250Z,32.17
2023-05-15T15:10:40.294Z,32.03
2023-05-15T15:13:44.199Z,36.17
2023-05-15T15:16:48.233Z,35.70
2023-05-15T15:19:52.216Z,33.70
2023-05-15T15:22:56.631Z,39.23
2023-05-15T15:26:02.161Z,37.57
2023-05-15T15:29:06.143Z,36.23
2023-05-15T15:32:10.055Z,39.90
2023-05-15T15:35:14.175Z,35.30
2023-05-15T15:38:18.079Z,34.00
2023-05-15T15:41:23.784Z,31.23
2023-05-15T15:44:27.639Z,37.80
2023-05-15T15:47:32.439Z,37.23
2023-05-15T15:50:36.448Z,33.40
2023-05-15T15:53:40.573Z,35.87
2023-05-15T15:56:47.916Z,33.37
2023-05-15T15:59:51.761Z,35.07
2023-05-15T16:02:55.735Z,37.10
2023-05-15T16:06:00.419Z,38.03
2023-05-15T16:09:05.573Z,40.83
2023-05-15T16:12:11.159Z,38.13
2023-05-15T16:15:23.206Z,33.27
2023-05-15T16:18:27.962Z,36.30
2023-05-15T16:21:31.985Z,35.23
2023-05-15T16:24:37.590Z,37.00
2023-05-15T16:27:42.984Z,38.23
2023-05-15T16:30:49.799Z,34.07
2023-05-15T16:33:54.181Z,38.73
2023-05-15T16:36:58.085Z,34.53
2023-05-15T16:40:02.125Z,39.77
2023-05-15T16:43:07.751Z,39.53
2023-05-15T16:46:11.645Z,36.77
2023-05-15T16:49:15.782Z,37.90
2023-05-15T16:52:19.571Z,34.30
2023-05-15T16:55:23.734Z,31.97
2023-05-15T16:58:29.350Z,29.07
2023-05-15T17:01:33.178Z,35.13
2023-05-15T17:04:37.915Z,34.63
2023-05-15T17:07:42.452Z,31.07
2023-05-15T17:10:46.419Z,30.90
2023-05-15T17:13:51.811Z,32.77
2023-05-15T17:16:55.763Z,34.23
2023-05-15T17:20:02.417Z,34.57
2023-05-15T17:23:06.948Z,35.63
2023-05-15T17:26:10.904Z,32.43
2023-05-15T17:29:16.424Z,38.20
2023-05-15T17:32:20.692Z,37.50
2023-05-15T17:35:25.029Z,36.63
2023-05-15T17:38:29.436Z,32.93
2023-05-15T17:41:33.380Z,36.00
2023-05-15T17:44:38.789Z,38.00
2023-05-15T17:47:42.996Z,33.50
2023-05-15T17:50:46.994Z,36.63
2023-05-15T17:53:51.554Z,34.57
2023-05-15T17:56:55.568Z,38.80
2023-05-15T18:00:01.013Z,37.13
2023-05-15T18:03:05.197Z,35.73
2023-05-15T18:06:09.468Z,35.00
2023-05-15T18:09:13.440Z,35.10
2023-05-15T18:12:17.381Z,33.63
2023-05-15T18:15:22.900Z,37.27
2023-05-15T18:18:26.878Z,37.10
2023-05-15T18:21:31.015Z,37.57
2023-05-15T18:24:34.881Z,38.73
2023-05-15T18:27:38.880Z,41.70
2023-05-15T18:30:45.988Z,38.27
2023-05-15T18:33:50.037Z,39.30
2023-05-15T18:36:54.005Z,41.57
2023-05-15T18:39:59.087Z,40.50
2023-05-15T18:43:03.269Z,41.10
2023-05-15T18:46:08.867Z,39.80
2023-05-15T18:49:12.744Z,36.97
2023-05-15T18:52:16.812Z,39.07
2023-05-15T18:55:20.759Z,41.20
2023-05-15T18:58:24.713Z,41.90
2023-05-15T19:01:30.224Z,41.47
2023-05-15T19:04:34.083Z,38.13
2023-05-15T19:07:38.401Z,38.70
2023-05-15T19:10:42.476Z,47.87
2023-05-15T19:13:46.517Z,46.67
2023-05-15T19:16:51.906Z,51.53
2023-05-15T19:19:56.312Z,51.03
2023-05-15T19:23:00.152Z,52.53
2023-05-15T19:26:04.108Z,50.27
2023-05-15T19:29:07.937Z,56.57
2023-05-15T19:32:13.291Z,52.87
2023-05-15T19:35:17.417Z,49.30
2023-05-15T19:38:21.310Z,50.83
2023-05-15T19:41:25.396Z,51.40
2023-05-15T19:44:29.401Z,46.97
2023-05-15T19:47:34.891Z,54.70
2023-05-15T19:50:40.670Z,49.77
2023-05-15T19:53:45.000Z,53.47
2023-05-15T19:56:48.915Z,45.83
2023-05-15T19:59:52.808Z,50.87
2023-05-15T20:02:58.453Z,51.33
2023-05-15T20:06:02.923Z,56.20
2023-05-15T20:09:06.842Z,64.57
2023-05-15T20:12:10.824Z,62.37
2023-05-15T20:15:16.040Z,68.10
2023-05-15T20:18:22.211Z,71.20
2023-05-15T20:21:26.011Z,72.40
2023-05-15T20:24:30.580Z,81.43
2023-05-15T20:27:34.800Z,99.47
2023-05-15T20:30:38.709Z,93.30
2023-05-15T20:33:44.140Z,99.90
2023-05-15T20:36:48.378Z,104.27
2023-05-15T20:39:52.307Z,110.33
2023-05-15T20:42:57.276Z,112.57
2023-05-15T20:46:01.191Z,104.70
2023-05-15T20:49:06.635Z,118.93
2023-05-15T20:52:10.655Z,121.63
2023-05-15T20:55:20.474Z,124.87
2023-05-15T20:58:24.274Z,111.93
2023-05-15T21:01:28.360Z,121.03
2023-05-15T21:04:33.849Z,116.40
2023-05-15T21:07:38.042Z,119.67
2023-05-15T21:10:41.951Z,108.87
2023-05-15T21:13:45.923Z,99.10
2023-05-15T21:16:49.898Z,107.53
2023-05-15T21:19:57.729Z,103.83
2023-05-15T21:23:01.606Z,98.77
2023-05-15T21:26:05.690Z,113.20
2023-05-15T21:29:10.283Z,113.37
2023-05-15T21:32:14.240Z,124.47
2023-05-15T21:35:19.498Z,131.93
2023-05-15T21:38:23.364Z,117.87
2023-05-15T21:41:27.642Z,86.67
2023-05-15T21:44:31.573Z,82.97
2023-05-15T21:47:35.434Z,67.67
2023-05-15T21:50:41.272Z,61.47
2023-05-15T21:53:45.223Z,55.90
2023-05-15T21:56:49.142Z,54.37
2023-05-15T21:59:52.984Z,57.07
2023-05-15T22:02:57.054Z,47.53
2023-05-15T22:06:02.381Z,53.93
2023-05-15T22:09:06.408Z,52.80
2023-05-15T22:12:10.519Z,52.90
2023-05-15T22:15:16.575Z,50.33
2023-05-15T22:18:20.509Z,53.63
2023-05-15T22:21:25.861Z,51.50
2023-05-15T22:24:29.745Z,48.87
2023-05-15T22:27:34.167Z,49.23
2023-05-15T22:30:38.073Z,45.47
2023-05-15T22:33:42.036Z,50.87
2023-05-15T22:36:47.401Z,46.53
2023-05-15T22:39:51.268Z,47.50
2023-05-15T22:42:55.173Z,50.73
2023-05-15T22:45:59.249Z,46.87
2023-05-15T22:49:04.625Z,48.93
2023-05-15T22:52:12.152Z,54.23
2023-05-15T22:55:17.508Z,45.70
2023-05-15T22:58:21.903Z,52.93
2023-05-15T23:01:26.350Z,46.70
2023-05-15T23:04:30.349Z,47.07
2023-05-15T23:07:36.624Z,46.60
2023-05-15T23:10:40.724Z,49.43
2023-05-15T23:13:44.830Z,54.17
2023-05-15T23:16:50.177Z,50.50
2023-05-15T23:19:54.162Z,44.17
2023-05-15T23:22:59.497Z,45.83
2023-05-15T23:26:03.423Z,48.40
2023-05-15T23:29:07.284Z,48.10
2023-05-15T23:32:11.220Z,52.37
2023-05-15T23:35:15.160Z,48.43
2023-05-15T23:38:22.645Z,53.73
2023-05-15T23:41:26.601Z,58.00
2023-05-15T23:44:30.511Z,47.53
2023-05-15T23:47:34.369Z,51.47
2023-05-15T23:50:38.284Z,46.70
2023-05-15T23:53:43.684Z,50.67
2023-05-15T23:56:47.587Z,47.83
2023-05-15T23:59:51.540Z,48.07
